Echola, Alabama
Current Conditions -  °F | °C
As of 8:53 AM on Friday 31 Oct 2014 (Local Time) from KTCL Reporting Station
Few Clouds Few Clouds  
Wind Chill:   Ceiling: Unl
Heat Index:   Visibility: 10mi
Dew Point:   Wind: 0mph
Humidity: 90%   Direction: NA
Pressure: 30"   Gusts: NA
Location:  33.34°N, 87.79°W
Report Text: KTCL 311353Z 00000KT 10SM FEW080 09/08 A3000 RMK AO2 SLP159 T00940078
Loading
Personal Weather Stations






























Interactive Weather Map
Tropical Storm Tracking
New forecast layout! Learn more

10-Day Weather Forecast

Advertisements
Track Severe Weather on mobile